• Join FlightAware (Why Join?)
  • Login
  • US Flag 
02:11AM EDT


 

Airport Tracker/Info


-or-


 

Live Flight TrackerFlight Track Log ✈ RPA3228 ✈ 25-Apr-2013 ✈ KDCA - KBTV

Flight Track Log - Related Links

Times and Time Zones

All times are in EDT time to prevent confusion due to time zone crossing. See the RPA3228 flight status page for this flight to view local times or setup timezone preferences in your user account.

Time Position Orientation Groundspeed Altitude Reporting Facility
EDT Latitude Longitude Course Direction KTS MPH feet Rate Location/Type
10:29AM 38.9061 -77.0933 83° East 163 188 3,000  Level Washington Center
10:30AM 38.9844 -76.6468 67° East  Level FlightAware Approximate
10:30AM 38.9575 -77.1481 320° Northwest 201 231 6,100  Level Washington Center
10:31AM 39.0335 -76.5164 63° Northeast  Level FlightAware Approximate
10:31AM 39.0203 -77.1278 14° North 222 255 9,500  Level Washington Center
10:32AM 39.0862 -76.3878 61° Northeast  Level FlightAware Approximate
10:32AM 39.0467 -77.0136 73° East 213 245 11,600  Level Washington Center
10:33AM 39.1227 -76.2547 57° Northeast  Level FlightAware Approximate
10:33AM 39.0650 -76.8828 80° East 271 312 13,900  Level Washington Center
10:34AM 39.1592 -76.1245 83° East  Level FlightAware Approximate
10:34AM 39.0831 -76.7442 80° East 336 387 16,300  Level Washington Center
10:35AM 39.1008 -76.5972 81° East 380 437 18,200 2,100 Climbing Washington Center
10:36AM 39.1208 -76.4425 80° East 411 473 20,500 1,980 Climbing Washington Center
10:37AM 39.1428 -76.2819 80° East 436 502 22,200 1,200 Climbing Washington Center
10:38AM 39.1708 -76.0922 79° East 472 543 23,000 360 Climbing Washington Center
10:39AM 39.1922 -75.9211 81° East 483 556 23,000  Level Washington Center
10:40AM 39.2717 -75.7847 53° Northeast 465 535 23,000 900 Level Washington Center
10:41AM 39.3697 -75.6561 45° Northeast 477 549 24,800 1,740 Climbing Washington Center
10:42AM 39.4656 -75.5297 45° Northeast 483 556 26,500 1,740 Climbing Washington Center
10:43AM 39.5656 -75.4006 45° Northeast 490 564 28,300 1,260 Climbing Washington Center
10:45AM 39.7708 -75.1167 47° Northeast 513 590 30,700 1,140 Climbing New York Center
10:46AM 39.8678 -74.9739 48° Northeast 518 596 32,000 1,140 Climbing New York Center
10:47AM 39.9706 -74.8392 45° Northeast 524 603 33,000 480 Climbing New York Center
10:48AM 40.0978 -74.7108 38° Northeast 512 589 33,000  Level New York Center
10:49AM 40.2031 -74.6136 35° Northeast 519 597 33,000  Level New York Center
10:50AM 40.3214 -74.5006 36° Northeast 519 597 33,000  Level New York Center
10:51AM 40.4417 -74.3869 36° Northeast 519 597 33,000  Level New York Center
10:52AM 40.5575 -74.2756 36° Northeast 519 597 33,000  Level New York Center
10:54AM 40.8200 -74.0308 35° Northeast 528 608 33,000  Level Boston Center
10:55AM 40.9361 -73.9183 36° Northeast 522 601 33,000  Level Boston Center
10:56AM 41.0519 -73.8081 36° Northeast 517 595 33,000  Level Boston Center
10:57AM 41.1778 -73.7611 16° North 481 554 33,000  Level Boston Center
10:58AM 41.3089 -73.7556 North 465 535 33,000  Level Boston Center
10:59AM 41.4447 -73.7306 North 476 548 33,000  Level Boston Center
11:00AM 41.5806 -73.7056 North 482 555 33,000  Level Boston Center
11:01AM 41.7203 -73.6833 North 476 548 33,000  Level Boston Center
11:02AM 41.8539 -73.6608 North 476 548 33,000  Level Boston Center
11:03AM 41.9878 -73.6383 North 481 554 33,000  Level Boston Center
11:04AM 42.1089 -73.6125 North 491 565 33,000 -420 Level Boston Center
11:05AM 42.2467 -73.5844 North 491 565 32,200 -1,080 Descending Boston Center
11:06AM 42.3928 -73.5644 North 486 559 30,900 -1,320 Descending Boston Center
11:07AM 42.5264 -73.5389 North 486 559 29,600 -960 Descending Boston Center
11:08AM 42.6600 -73.5131 North 486 559 29,000 -300 Descending Boston Center
11:09AM 42.7917 -73.4897 North 481 554 29,000  Level Boston Center
11:10AM 42.9189 -73.4664 North 475 547 29,000 -720 Level Boston Center
11:11AM 43.0525 -73.4375 North 475 547 27,600 -1,500 Descending Boston Center
11:12AM 43.1842 -73.4139 North 475 547 26,000 -1,500 Descending Boston Center
11:13AM 43.3092 -73.3903 North 460 529 24,700 -1,020 Descending Boston Center
11:14AM 43.4367 -73.3694 North 455 524 24,000 -840 Descending Boston Center
11:15AM 43.5597 -73.3453 North 455 524 23,100 -1,080 Descending Boston Center
11:16AM 43.6578 -73.3297 North 450 518 21,900 -1,380 Descending Boston Center
11:17AM 43.7789 -73.3028 North 414 476 20,400 -1,680 Descending Boston Center
11:18AM 43.8978 -73.2814 North 402 463 18,600 -1,740 Descending Boston Center
11:19AM 44.0042 -73.2683 North 384 442 17,000 -1,800 Descending Boston Center
11:20AM 44.1019 -73.2728 358° North 364 419 15,100 -1,800 Descending Boston Center
11:21AM 44.1958 -73.2797 357° North 342 394 13,400 -1,800 Descending Boston Center
11:22AM 44.2733 -73.2286 25° Northeast 304 350 11,600 -1,560 Descending Boston Center
11:23AM 44.2947 -73.1072 76° East 287 330 10,300 -1,500 Descending Boston Center
11:24AM 44.3203 -72.9942 72° East 294 338 8,600 -1,800 Descending Boston Center
11:25AM 44.3811 -72.9253 39° Northeast 280 322 6,800 -1,440 Descending Boston Center
11:26AM 44.4247 -72.9633 328° Northwest 156 180 5,800 -1,140 Descending Boston Center
11:27AM 44.3725 -73.0033 209° Southwest 106 122 4,600 -1,080 Descending Boston Center
11:28AM 44.3369 -73.0467 221° Southwest 146 168 3,700 -900 Descending Boston Center